Monday, June 18, 2018, 8:50 PM EDT
Back to Local

KBLM, Belmar-farmingdale

Location: Farmingdale, NJ, United States Lat: 40.183
Local Time: 8:50 PM EDT ( 0:50 GMT) Lon: -74.133
Time Zone: US/Eastern Elev: 157 ft

Show me the last for .
Show Decoded

2018-06-18 19:56 METAR KBLM 182356Z AUTO 20009G16KT 10SM CLR 28/19 A2983 RMK AO2 SLP104 6////
                 T02780194 10333 20278 56017 =
2018-06-18 18:56 METAR KBLM 182256Z AUTO 20008KT 10SM CLR 29/21 A2984 RMK AO2 SLP105 T02940211 =
2018-06-18 17:56 METAR KBLM 182156Z AUTO 20007G15KT 10SM CLR 31/22 A2986 RMK AO2 SLP113 T03060222
                 =
2018-06-18 16:56 METAR KBLM 182056Z AUTO 18005KT 10SM CLR 32/22 A2988 RMK AO2 SLP122 6////
                 T03220222 56026 =
2018-06-18 15:56 METAR KBLM 181956Z AUTO 15010KT 10SM CLR 31/23 A2991 RMK AO2 SLP129 T03110228 =
2018-06-18 14:56 METAR KBLM 181856Z AUTO 20009G16KT 10SM CLR 32/21 A2994 RMK AO2 SLP139 T03220211
                 =
2018-06-18 13:56 METAR KBLM 181756Z AUTO 24009KT 10SM FEW046 33/22 A2996 RMK AO2 SLP148 6////
                 T03330217 10333 20228 58019 =
2018-06-18 12:56 METAR KBLM 181656Z AUTO 21009G15KT 10SM CLR 32/21 A2998 RMK AO2 SLP155 T03220206
                 =
2018-06-18 11:56 METAR KBLM 181556Z AUTO 22007KT 10SM CLR 31/21 A3000 RMK AO2 SLP162 T03110211 =
2018-06-18 10:56 METAR KBLM 181456Z AUTO 21007KT 10SM CLR 29/19 A3002 RMK AO2 SLP167 T02940194
                 56015 =
2018-06-18 09:56 METAR KBLM 181356Z AUTO 21008KT 10SM CLR 28/19 A3003 RMK AO2 SLP172 T02780189 =
2018-06-18 08:56 METAR KBLM 181256Z AUTO 23007KT 10SM CLR 26/19 A3005 RMK AO2 SLP176 T02560189 =
2018-06-18 07:56 METAR KBLM 181156Z AUTO 22006KT 10SM CLR 23/19 A3006 RMK AO2 SLP183 7////
                 T02280194 10228 20194 58004 =
2018-06-18 07:29 METAR KBLM 181129Z AUTO 21006KT 10SM SCT002 21/19 A3007 RMK AO2 =
2018-06-18 06:56 METAR KBLM 181056Z AUTO 21006KT 6SM BR OVC002 20/19 A3008 RMK AO2 SLP187
                 T02000194 =
2018-06-18 06:50 METAR KBLM 181050Z AUTO 22006KT 3SM BR OVC002 20/19 A3008 RMK AO2 =
2018-06-18 06:44 METAR KBLM 181044Z AUTO 20006KT 1 3/4SM BR OVC002 20/19 A3008 RMK AO2 VIS 1
                 1/4V3 =
2018-06-18 06:26 METAR KBLM 181026Z AUTO 21007KT 1SM BR OVC002 19/19 A3008 RMK AO2 RVRNO =
2018-06-18 06:19 METAR KBLM 181019Z AUTO 21006KT 1 1/4SM BR BKN002 19/19 A3008 RMK AO2 =
2018-06-18 06:09 METAR KBLM 181009Z AUTO 21006KT 2 1/2SM BR BKN002 19/19 A3008 RMK AO2 =
2018-06-18 06:04 METAR KBLM 181004Z AUTO 21005KT 5SM BR SCT002 19/19 A3008 RMK AO2 =
2018-06-18 05:56 METAR KBLM 180956Z AUTO 21006KT 8SM CLR 19/19 A3008 RMK AO2 SLP189 T01940189 =
2018-06-18 04:56 METAR KBLM 180856Z AUTO 21004KT 10SM CLR 19/19 A3008 RMK AO2 SLP187 T01940189
                 58003 =
2018-06-18 03:56 METAR KBLM 180756Z AUTO 23004KT 10SM CLR 19/18 A3009 RMK AO2 SLP191 T01940183 =
2018-06-18 02:56 METAR KBLM 180656Z AUTO 22005KT 10SM CLR 20/19 A3008 RMK AO2 SLP189 T02000189 =
2018-06-18 01:56 METAR KBLM 180556Z AUTO 21005KT 10SM CLR 21/19 A3009 RMK AO2 SLP190 6////
                 T02060189 10250 20206 58002 =
2018-06-18 00:56 METAR KBLM 180456Z AUTO 21005KT 10SM CLR 21/18 A3009 RMK AO2 SLP193 T02110183
                 403110150 =
2018-06-17 23:56 METAR KBLM 180356Z AUTO 20008KT 10SM CLR 22/18 A3009 RMK AO2 SLP192 T02170183 =
2018-06-17 22:56 METAR KBLM 180256Z AUTO 20006KT 10SM CLR 22/17 A3009 RMK AO2 SLP192 6////
                 T02220167 53004 =
2018-06-17 21:56 METAR KBLM 180156Z AUTO 20005KT 10SM CLR 23/16 A3009 RMK AO2 SLP191 T02330156 =
2018-06-17 20:56 METAR KBLM 180056Z AUTO 19005KT 10SM CLR 24/16 A3007 RMK AO2 SLP186 T02390156 =

Support USWX by starting your Amazon purchase here.